createdAt,value
2019-02-10T00:02:14.943Z,99746.41
2019-02-10T00:04:45.339Z,99747.27
2019-02-10T00:07:15.826Z,99739.47
2019-02-10T00:09:46.455Z,99744.94
2019-02-10T00:12:17.078Z,99741.30
2019-02-10T00:14:48.837Z,99742.26
2019-02-10T00:17:19.305Z,99731.92
2019-02-10T00:19:49.687Z,99722.80
2019-02-10T00:22:20.231Z,99734.94
2019-02-10T00:24:54.282Z,99727.80
2019-02-10T00:27:24.793Z,99734.48
2019-02-10T00:29:55.421Z,99732.82
2019-02-10T00:32:25.986Z,99722.09
2019-02-10T00:34:56.405Z,99724.88
2019-02-10T00:37:26.810Z,99723.91
2019-02-10T00:39:57.207Z,99715.57
2019-02-10T00:42:27.632Z,99719.05
2019-02-10T00:44:57.998Z,99717.00
2019-02-10T00:47:28.353Z,99712.25
2019-02-10T00:49:58.698Z,99708.55
2019-02-10T00:52:29.089Z,99713.11
2019-02-10T00:54:59.574Z,99712.83
2019-02-10T00:57:30.152Z,99705.41
2019-02-10T01:00:00.550Z,99713.11
2019-02-10T01:02:31.436Z,99723.91
2019-02-10T01:05:02.124Z,99723.84
2019-02-10T01:07:32.764Z,99728.23
2019-02-10T01:10:03.168Z,99736.04
2019-02-10T01:12:33.562Z,99738.86
2019-02-10T01:15:03.868Z,99731.72
2019-02-10T01:17:34.475Z,99739.42
2019-02-10T01:20:04.907Z,99734.02
2019-02-10T01:22:35.272Z,99739.38
2019-02-10T01:25:05.821Z,99728.61
2019-02-10T01:27:36.268Z,99730.50
2019-02-10T01:30:07.479Z,99725.34
2019-02-10T01:32:37.933Z,99724.11
2019-02-10T01:35:08.376Z,99715.31
2019-02-10T01:37:39.507Z,99709.38
2019-02-10T01:40:11.291Z,99700.20
2019-02-10T01:42:42.182Z,99695.53
2019-02-10T01:45:13.168Z,99685.99
2019-02-10T01:47:43.548Z,99694.97
2019-02-10T01:50:13.919Z,99695.66
2019-02-10T01:52:44.322Z,99691.78
2019-02-10T01:55:15.208Z,99680.09
2019-02-10T01:57:46.072Z,99678.23
2019-02-10T02:00:17.352Z,99686.16
2019-02-10T02:02:47.660Z,99673.20
2019-02-10T02:05:18.119Z,99672.63
2019-02-10T02:07:48.762Z,99672.97
2019-02-10T02:10:19.132Z,99669.66
2019-02-10T02:12:50.028Z,99664.47
2019-02-10T02:15:20.442Z,99662.83
2019-02-10T02:17:50.826Z,99661.38
2019-02-10T02:20:21.131Z,99659.11
2019-02-10T02:22:51.537Z,99653.59
2019-02-10T02:25:21.832Z,99641.96
2019-02-10T02:27:52.632Z,99642.53
2019-02-10T02:30:23.108Z,99632.67
2019-02-10T02:32:53.502Z,99631.36
2019-02-10T02:35:23.853Z,99619.84
2019-02-10T02:37:54.547Z,99615.27
2019-02-10T02:40:24.901Z,99607.28
2019-02-10T02:42:55.351Z,99608.15
2019-02-10T02:45:25.743Z,99604.66
2019-02-10T02:47:56.056Z,99595.56
2019-02-10T02:50:28.086Z,99586.83
2019-02-10T02:52:58.427Z,99580.28
2019-02-10T02:55:28.889Z,99575.11
2019-02-10T02:57:59.511Z,99573.00
2019-02-10T03:00:29.888Z,99555.45
2019-02-10T03:03:05.152Z,99562.96
2019-02-10T03:05:45.072Z,99557.72
2019-02-10T03:08:15.645Z,99547.57
2019-02-10T03:10:46.451Z,99538.13
2019-02-10T03:13:16.961Z,99536.54
2019-02-10T03:15:47.297Z,99533.10
2019-02-10T03:18:18.211Z,99523.87
2019-02-10T03:20:48.995Z,99524.05
2019-02-10T03:23:19.365Z,99523.87
2019-02-10T03:25:49.771Z,99519.02
2019-02-10T03:28:20.082Z,99516.38
2019-02-10T03:30:50.383Z,99500.14
2019-02-10T03:33:20.775Z,99507.48
2019-02-10T03:35:51.124Z,99508.67
2019-02-10T03:38:22.922Z,99503.27
2019-02-10T03:40:53.193Z,99503.91
2019-02-10T03:43:23.600Z,99509.56
2019-02-10T03:45:54.522Z,99499.27
2019-02-10T03:48:24.916Z,99498.98
2019-02-10T03:50:55.350Z,99504.83
2019-02-10T03:53:25.721Z,99497.66
2019-02-10T03:55:56.158Z,99493.05
2019-02-10T03:58:26.600Z,99493.34
2019-02-10T04:00:56.983Z,99490.95
2019-02-10T04:03:27.384Z,99487.37
2019-02-10T04:05:58.143Z,99480.99
2019-02-10T04:08:28.571Z,99466.48
2019-02-10T04:10:59.051Z,99469.20
2019-02-10T04:13:29.435Z,99469.44
2019-02-10T04:15:59.857Z,99462.25
2019-02-10T04:18:30.314Z,99470.40
2019-02-10T04:21:01.189Z,99465.20
2019-02-10T04:23:31.598Z,99467.80
2019-02-10T04:26:01.936Z,99454.45
2019-02-10T04:28:32.642Z,99451.95
2019-02-10T04:31:02.957Z,99437.64
2019-02-10T04:33:33.431Z,99429.77
2019-02-10T04:36:03.712Z,99422.76
2019-02-10T04:38:33.994Z,99412.50
2019-02-10T04:41:04.739Z,99410.14
2019-02-10T04:43:35.136Z,99395.31
2019-02-10T04:46:05.603Z,99392.13
2019-02-10T04:48:36.030Z,99386.88
2019-02-10T04:51:08.145Z,99384.95
2019-02-10T04:53:38.509Z,99384.41
2019-02-10T04:56:16.580Z,99380.95
2019-02-10T04:58:47.295Z,99366.05
2019-02-10T05:01:20.687Z,99357.36
2019-02-10T05:03:50.976Z,99349.49
2019-02-10T05:06:21.360Z,99349.49
2019-02-10T05:08:51.816Z,99349.75
2019-02-10T05:11:22.148Z,99348.77
2019-02-10T05:13:52.529Z,99348.44
2019-02-10T05:16:22.895Z,99352.14
2019-02-10T05:18:53.242Z,99351.78
2019-02-10T05:21:23.686Z,99343.67
2019-02-10T05:24:02.794Z,99344.97
2019-02-10T05:26:26.239Z,99340.82
2019-02-10T05:28:57.025Z,99335.31
2019-02-10T05:31:27.372Z,99320.97
2019-02-10T05:33:57.750Z,99305.59
2019-02-10T05:36:28.127Z,99293.40
2019-02-10T05:38:58.513Z,99286.23
2019-02-10T05:41:28.878Z,99275.73
2019-02-10T05:43:59.171Z,99273.23
2019-02-10T05:46:29.557Z,99263.91
2019-02-10T05:48:59.928Z,99259.97
2019-02-10T05:51:30.337Z,99252.30
2019-02-10T05:54:01.031Z,99251.03
2019-02-10T05:56:31.442Z,99235.99
2019-02-10T05:59:01.912Z,99220.23
2019-02-10T06:01:59.525Z,99216.84
2019-02-10T06:04:30.282Z,99214.01
2019-02-10T06:07:03.091Z,99198.84
2019-02-10T06:09:33.387Z,99206.84
2019-02-10T06:12:03.747Z,99193.91
2019-02-10T06:14:34.131Z,99189.77
2019-02-10T06:17:04.507Z,99173.48
2019-02-10T06:19:35.024Z,99163.23
2019-02-10T06:22:05.345Z,99152.47
2019-02-10T06:24:36.044Z,99134.68
2019-02-10T06:27:06.409Z,99135.05
2019-02-10T06:29:36.862Z,99133.34
2019-02-10T06:32:07.319Z,99127.36
2019-02-10T06:34:37.657Z,99130.44
2019-02-10T06:37:08.180Z,99118.13
2019-02-10T06:39:38.505Z,99110.58
2019-02-10T06:42:09.289Z,99102.56
2019-02-10T06:44:39.733Z,99098.97
2019-02-10T06:47:10.030Z,99097.12
2019-02-10T06:49:40.453Z,99098.53
2019-02-10T06:52:10.774Z,99094.16
2019-02-10T06:54:46.183Z,99093.45
2019-02-10T06:57:16.639Z,99088.80
2019-02-10T06:59:52.729Z,99086.20
2019-02-10T07:02:32.805Z,99081.02
2019-02-10T07:05:03.176Z,99082.03
2019-02-10T07:07:33.571Z,99073.47
2019-02-10T07:10:03.953Z,99070.50
2019-02-10T07:12:52.490Z,99070.33
2019-02-10T07:15:57.663Z,99059.71
2019-02-10T07:19:02.717Z,99059.28
2019-02-10T07:21:42.542Z,99053.75
2019-02-10T07:25:03.184Z,99047.11
2019-02-10T07:27:34.190Z,99044.75
2019-02-10T07:30:43.995Z,99034.58
2019-02-10T07:34:00.719Z,99028.98
2019-02-10T07:37:10.902Z,99022.08
2019-02-10T07:40:15.242Z,99017.39
2019-02-10T07:43:07.974Z,99011.25
2019-02-10T07:45:59.878Z,99000.32
2019-02-10T07:48:48.948Z,98996.75
2019-02-10T07:51:41.335Z,98981.93
2019-02-10T07:54:27.156Z,98985.36
2019-02-10T07:57:22.171Z,98985.64
2019-02-10T08:00:45.720Z,98978.46
2019-02-10T08:03:51.090Z,98963.05
2019-02-10T08:07:10.892Z,98961.59
2019-02-10T08:10:23.943Z,98959.85
2019-02-10T08:13:17.477Z,98933.87
2019-02-10T08:16:12.160Z,98920.87
2019-02-10T08:19:24.355Z,98916.30
2019-02-10T08:22:52.880Z,98920.53
2019-02-10T08:25:52.492Z,98900.66
2019-02-10T08:29:05.128Z,98893.60
2019-02-10T08:32:26.097Z,98887.98
2019-02-10T08:35:42.758Z,98882.26
2019-02-10T08:38:29.877Z,98860.63
2019-02-10T08:41:35.064Z,98848.80
2019-02-10T08:44:46.712Z,98840.06
2019-02-10T08:47:55.072Z,98823.65
2019-02-10T08:50:54.219Z,98811.56
2019-02-10T08:53:29.048Z,98789.61
2019-02-10T08:55:59.477Z,98790.46
2019-02-10T08:58:31.016Z,98779.39
2019-02-10T09:01:01.432Z,98767.02
2019-02-10T09:03:31.875Z,98765.40
2019-02-10T09:06:02.323Z,98756.81
2019-02-10T09:08:32.659Z,98750.81
2019-02-10T09:11:03.020Z,98740.75
2019-02-10T09:13:33.349Z,98738.88
2019-02-10T09:16:03.863Z,98725.80
2019-02-10T09:18:34.219Z,98719.48
2019-02-10T09:21:07.254Z,98713.78
2019-02-10T09:23:38.206Z,98704.41
2019-02-10T09:26:09.233Z,98698.14
2019-02-10T09:28:39.632Z,98686.78
2019-02-10T09:31:10.471Z,98674.72
2019-02-10T09:33:40.878Z,98672.77
2019-02-10T09:36:11.836Z,98663.87
2019-02-10T09:38:42.541Z,98647.57
2019-02-10T09:41:13.125Z,98642.30
2019-02-10T09:43:43.590Z,98642.13
2019-02-10T09:46:14.378Z,98629.70
2019-02-10T09:48:44.712Z,98634.64
2019-02-10T09:51:15.433Z,98628.20
2019-02-10T09:53:45.840Z,98624.37
2019-02-10T09:56:16.183Z,98615.30
2019-02-10T09:58:46.617Z,98593.17
2019-02-10T10:01:17.768Z,98594.43
2019-02-10T10:03:48.165Z,98588.00
2019-02-10T10:06:18.619Z,98582.09
2019-02-10T10:08:49.040Z,98586.05
2019-02-10T10:11:24.686Z,98567.41
2019-02-10T10:13:59.842Z,98567.03
2019-02-10T10:16:30.331Z,98553.97
2019-02-10T10:19:00.664Z,98554.97
2019-02-10T10:21:30.996Z,98547.85
2019-02-10T10:24:01.277Z,98552.34
2019-02-10T10:26:31.906Z,98546.81
2019-02-10T10:29:02.343Z,98530.00
2019-02-10T10:31:35.003Z,98528.54
2019-02-10T10:34:08.893Z,98525.15
2019-02-10T10:36:43.695Z,98519.76
2019-02-10T10:39:14.081Z,98512.50
2019-02-10T10:41:44.495Z,98503.27
2019-02-10T10:44:14.845Z,98468.00
2019-02-10T10:46:47.042Z,98459.13
2019-02-10T10:49:17.461Z,98456.34
2019-02-10T10:51:47.941Z,98464.14
2019-02-10T10:54:20.083Z,98458.25
2019-02-10T10:56:53.679Z,98443.22
2019-02-10T10:59:24.263Z,98446.56
2019-02-10T11:01:54.749Z,98425.11
2019-02-10T11:04:25.078Z,98428.08
2019-02-10T11:06:55.516Z,98408.49
2019-02-10T11:09:25.923Z,98418.41
2019-02-10T11:11:56.376Z,98362.94
2019-02-10T11:14:26.700Z,98397.09
2019-02-10T11:16:57.692Z,98388.18
2019-02-10T11:19:28.057Z,98383.53
2019-02-10T11:21:59.153Z,98371.18
2019-02-10T11:24:29.519Z,98370.84
2019-02-10T11:27:00.435Z,98320.95
2019-02-10T11:29:30.941Z,98370.50
2019-02-10T11:32:01.341Z,98344.39
2019-02-10T11:34:32.646Z,98357.50
2019-02-10T11:37:03.914Z,98345.64
2019-02-10T11:39:34.340Z,98337.70
2019-02-10T11:42:36.214Z,98309.64
2019-02-10T11:45:09.083Z,98315.01
2019-02-10T11:47:40.481Z,98322.45
2019-02-10T11:50:11.471Z,98319.16
2019-02-10T11:52:42.992Z,98316.45
2019-02-10T11:55:13.593Z,98303.59
2019-02-10T11:57:44.135Z,98286.75
2019-02-10T12:00:15.019Z,98296.38
2019-02-10T12:02:45.509Z,98277.86
2019-02-10T12:05:15.879Z,98286.11
2019-02-10T12:07:49.719Z,98280.38
2019-02-10T12:10:21.136Z,98281.72
2019-02-10T12:12:52.341Z,98273.77
2019-02-10T12:15:22.842Z,98274.62
2019-02-10T12:17:53.888Z,98260.47
2019-02-10T12:20:24.340Z,98250.45
2019-02-10T12:22:54.780Z,98234.38
2019-02-10T12:25:25.854Z,98237.33
2019-02-10T12:27:56.639Z,98226.23
2019-02-10T12:30:27.159Z,98212.01
2019-02-10T12:32:57.858Z,98213.47
2019-02-10T12:35:29.052Z,98211.72
2019-02-10T12:38:00.339Z,98202.72
2019-02-10T12:40:30.798Z,98204.41
2019-02-10T12:43:03.177Z,98193.08
2019-02-10T12:45:35.174Z,98184.20
2019-02-10T12:48:06.631Z,98180.85
2019-02-10T12:50:39.100Z,98186.84
2019-02-10T12:53:09.633Z,98164.64
2019-02-10T12:55:40.148Z,98164.09
2019-02-10T12:58:11.332Z,98158.98
2019-02-10T13:00:41.973Z,98142.36
2019-02-10T13:03:12.822Z,98152.96
2019-02-10T13:05:44.189Z,98146.09
2019-02-10T13:08:14.754Z,98142.32
2019-02-10T13:10:45.332Z,98143.20
2019-02-10T13:13:19.309Z,98135.25
2019-02-10T13:15:50.576Z,98130.70
2019-02-10T13:18:23.052Z,98123.14
2019-02-10T13:20:54.068Z,98106.80
2019-02-10T13:23:24.827Z,98112.19
2019-02-10T13:26:03.543Z,98105.22
2019-02-10T13:28:34.173Z,98094.04
2019-02-10T13:31:04.705Z,98091.02
2019-02-10T13:33:35.455Z,98086.45
2019-02-10T13:36:07.796Z,98088.32
2019-02-10T13:38:38.302Z,98073.02
2019-02-10T13:41:13.069Z,98057.63
2019-02-10T13:43:44.087Z,98077.91
2019-02-10T13:46:15.673Z,98066.86
2019-02-10T13:48:46.256Z,98064.31
2019-02-10T13:51:17.865Z,98056.52
2019-02-10T13:53:48.733Z,98047.53
2019-02-10T13:56:19.156Z,98034.06
2019-02-10T13:58:49.561Z,98040.20
2019-02-10T14:01:20.697Z,98035.17
2019-02-10T14:03:51.355Z,98039.83
2019-02-10T14:06:22.201Z,98026.36
2019-02-10T14:12:21.774Z,98000.68
2019-02-10T14:14:53.981Z,98023.20
2019-02-10T14:17:24.604Z,98023.26
2019-02-10T14:19:55.237Z,98020.77
2019-02-10T14:22:25.909Z,98013.80
2019-02-10T14:24:56.424Z,98012.75
2019-02-10T14:27:26.930Z,98016.16
2019-02-10T14:30:00.290Z,97988.84
2019-02-10T14:32:32.024Z,98005.80
2019-02-10T14:35:05.336Z,97997.45
2019-02-10T14:37:36.412Z,97996.44
2019-02-10T14:40:07.681Z,97995.66
2019-02-10T14:42:38.832Z,97991.38
2019-02-10T14:45:09.532Z,97980.27
2019-02-10T14:47:41.146Z,97977.23
2019-02-10T14:50:13.263Z,97983.25
2019-02-10T14:52:43.918Z,97981.25
2019-02-10T14:55:18.629Z,97978.30
2019-02-10T14:57:50.034Z,97974.11
2019-02-10T15:00:20.677Z,97963.86
2019-02-10T15:02:51.581Z,97961.52
2019-02-10T15:05:22.537Z,97962.00
2019-02-10T15:07:56.254Z,97964.80
2019-02-10T15:10:27.730Z,97960.30
2019-02-10T15:13:00.982Z,97959.44
2019-02-10T15:15:33.386Z,97959.77
2019-02-10T15:18:05.386Z,97958.52
2019-02-10T15:20:36.365Z,97946.43
2019-02-10T15:23:07.907Z,97935.63
2019-02-10T15:25:38.877Z,97924.05
2019-02-10T15:28:12.856Z,97924.70
2019-02-10T15:30:44.892Z,97914.53
2019-02-10T15:33:15.628Z,97906.25
2019-02-10T15:35:46.467Z,97914.48
2019-02-10T15:38:20.365Z,97907.27
2019-02-10T15:40:52.756Z,97909.09
2019-02-10T15:43:23.620Z,97893.18
2019-02-10T15:45:54.519Z,97867.26
2019-02-10T15:48:42.501Z,97882.94
2019-02-10T15:51:47.820Z,97878.55
2019-02-10T15:58:01.385Z,97858.41
2019-02-10T16:00:32.577Z,97841.53
2019-02-10T16:03:04.092Z,97835.45
2019-02-10T16:05:35.452Z,97824.23
2019-02-10T16:08:07.854Z,97833.17
2019-02-10T16:10:39.086Z,97836.72
2019-02-10T16:13:11.437Z,97823.13
2019-02-10T16:15:43.400Z,97840.26
2019-02-10T16:18:14.660Z,97831.84
2019-02-10T16:20:45.447Z,97829.99
2019-02-10T16:23:16.481Z,97836.09
2019-02-10T16:25:55.091Z,97839.06
2019-02-10T16:28:26.158Z,97823.95
2019-02-10T16:30:56.972Z,97837.63
2019-02-10T16:33:27.546Z,97838.48
2019-02-10T16:35:58.369Z,97838.02
2019-02-10T16:38:29.109Z,97851.27
2019-02-10T16:41:06.211Z,97849.47
2019-02-10T16:43:32.983Z,97843.80
2019-02-10T16:46:04.845Z,97856.84
2019-02-10T16:48:35.820Z,97867.13
2019-02-10T16:51:09.085Z,97856.17
2019-02-10T16:53:40.389Z,97841.11
2019-02-10T16:56:11.055Z,97834.89
2019-02-10T16:58:45.692Z,97842.48
2019-02-10T17:01:17.180Z,97839.01
2019-02-10T17:03:47.908Z,97841.16
2019-02-10T17:06:18.605Z,97844.13
2019-02-10T17:08:49.321Z,97831.55
2019-02-10T17:11:20.132Z,97835.64
2019-02-10T17:13:50.804Z,97831.19
2019-02-10T17:16:21.609Z,97828.29
2019-02-10T17:18:53.883Z,97837.53
2019-02-10T17:21:24.950Z,97833.27
2019-02-10T17:23:57.726Z,97829.67
2019-02-10T17:26:28.541Z,97825.62
2019-02-10T17:28:59.712Z,97812.61
2019-02-10T17:31:30.463Z,97839.22
2019-02-10T17:34:01.344Z,97843.45
2019-02-10T17:36:32.270Z,97834.03
2019-02-10T17:39:03.789Z,97835.06
2019-02-10T17:41:39.581Z,97826.55
2019-02-10T17:44:10.832Z,97851.06
2019-02-10T17:46:41.946Z,97861.52
2019-02-10T17:49:12.570Z,97854.95
2019-02-10T17:51:44.220Z,97872.66
2019-02-10T17:54:15.767Z,97878.97
2019-02-10T17:56:46.459Z,97880.64
2019-02-10T17:59:17.231Z,97882.50
2019-02-10T18:01:50.455Z,97894.73
2019-02-10T18:04:21.811Z,97888.07
2019-02-10T18:06:52.425Z,97887.73
2019-02-10T18:09:23.814Z,97896.27
2019-02-10T18:11:54.462Z,97903.88
2019-02-10T18:14:52.834Z,97915.88
2019-02-10T18:17:37.794Z,97927.12
2019-02-10T18:20:34.079Z,97929.25
2019-02-10T18:23:32.609Z,97939.23
2019-02-10T18:26:27.883Z,97949.43
2019-02-10T18:29:23.691Z,97959.02
2019-02-10T18:32:16.242Z,97955.70
2019-02-10T18:35:06.070Z,97950.25
2019-02-10T18:38:01.981Z,97931.31
2019-02-10T18:40:54.132Z,97942.16
2019-02-10T18:43:47.179Z,97947.09
2019-02-10T18:46:37.712Z,97946.70
2019-02-10T18:49:20.267Z,97943.79
2019-02-10T18:52:10.069Z,97954.33
2019-02-10T18:55:05.558Z,97934.86
2019-02-10T18:57:55.441Z,97946.11
2019-02-10T19:00:38.044Z,97954.35
2019-02-10T19:03:45.696Z,97950.55
2019-02-10T19:06:33.173Z,97957.87
2019-02-10T19:09:14.289Z,97949.43
2019-02-10T19:12:15.726Z,97945.81
2019-02-10T19:15:03.937Z,97951.13
2019-02-10T19:17:45.258Z,97967.00
2019-02-10T19:20:37.666Z,97963.90
2019-02-10T19:23:17.340Z,97979.67
2019-02-10T19:26:09.811Z,97965.16
2019-02-10T19:28:53.124Z,97970.26
2019-02-10T19:31:36.508Z,97966.13
2019-02-10T19:34:44.081Z,97939.27
2019-02-10T19:37:39.167Z,97939.14
2019-02-10T19:40:35.458Z,97925.05
2019-02-10T19:43:28.524Z,97930.98
2019-02-10T19:46:24.116Z,97965.09
2019-02-10T19:49:26.714Z,97974.14
2019-02-10T19:52:12.926Z,97969.27
2019-02-10T19:55:16.241Z,97973.87
2019-02-10T19:58:06.460Z,97982.76
2019-02-10T20:00:54.993Z,97992.19
2019-02-10T20:03:51.957Z,98000.27
2019-02-10T20:06:37.755Z,98006.17
2019-02-10T20:09:40.462Z,97996.00
2019-02-10T20:12:39.165Z,98008.81
2019-02-10T20:15:16.812Z,98005.55
2019-02-10T20:18:06.241Z,98004.87
2019-02-10T20:20:55.651Z,98020.04
2019-02-10T20:23:47.990Z,98028.12
2019-02-10T20:26:37.657Z,98030.91
2019-02-10T20:29:24.603Z,98042.45
2019-02-10T20:32:29.040Z,98052.02
2019-02-10T20:35:08.587Z,98056.29
2019-02-10T20:38:00.657Z,98077.69
2019-02-10T20:40:53.284Z,98076.38
2019-02-10T20:43:48.369Z,98071.42
2019-02-10T20:46:29.771Z,98077.67
2019-02-10T20:49:21.985Z,98086.27
2019-02-10T20:52:14.402Z,98082.63
2019-02-10T20:55:02.119Z,98078.67
2019-02-10T20:57:55.492Z,98087.60
2019-02-10T21:00:51.191Z,98084.62
2019-02-10T21:03:29.932Z,98075.41
2019-02-10T21:06:37.912Z,98073.91
2019-02-10T21:09:24.239Z,98076.39
2019-02-10T21:12:20.699Z,98074.56
2019-02-10T21:15:05.693Z,98099.11
2019-02-10T21:17:53.343Z,98108.64
2019-02-10T21:20:35.843Z,98133.69
2019-02-10T21:23:11.931Z,98147.82
2019-02-10T21:25:52.748Z,98157.06
2019-02-10T21:28:35.102Z,98167.62
2019-02-10T21:31:23.061Z,98167.58
2019-02-10T21:34:12.470Z,98152.09
2019-02-10T21:37:01.948Z,98173.30
2019-02-10T21:39:39.016Z,98190.20
2019-02-10T21:42:29.058Z,98192.86
2019-02-10T21:45:25.642Z,98193.50
2019-02-10T21:48:14.531Z,98186.55
2019-02-10T21:50:45.836Z,98194.70
2019-02-10T21:53:16.320Z,98194.31
2019-02-10T21:55:46.997Z,98196.30
2019-02-10T21:58:18.056Z,98185.91
2019-02-10T22:00:54.203Z,98195.54
2019-02-10T22:03:25.081Z,98190.66
2019-02-10T22:05:55.815Z,98183.54
2019-02-10T22:08:26.322Z,98165.73
2019-02-10T22:10:56.851Z,98174.45
2019-02-10T22:13:27.807Z,98168.34
2019-02-10T22:15:58.826Z,98157.14
2019-02-10T22:18:29.508Z,98166.89
2019-02-10T22:21:01.122Z,98161.76
2019-02-10T22:23:32.519Z,98157.81
2019-02-10T22:26:08.365Z,98156.49
2019-02-10T22:28:38.713Z,98146.72
2019-02-10T22:31:09.252Z,98161.02
2019-02-10T22:33:39.591Z,98172.23
2019-02-10T22:36:12.203Z,98140.78
2019-02-10T22:38:42.722Z,98177.06
2019-02-10T22:41:13.133Z,98172.77
2019-02-10T22:43:44.229Z,98174.76
2019-02-10T22:46:15.965Z,98175.96
2019-02-10T22:48:47.404Z,98176.95
2019-02-10T22:51:17.884Z,98177.88
2019-02-10T22:53:48.325Z,98168.03
2019-02-10T22:56:19.863Z,98173.45
2019-02-10T22:58:50.621Z,98168.30
2019-02-10T23:01:21.208Z,98180.62
2019-02-10T23:03:51.782Z,98183.33
2019-02-10T23:06:22.425Z,98186.12
2019-02-10T23:08:53.012Z,98191.34
2019-02-10T23:11:23.501Z,98186.48
2019-02-10T23:13:53.857Z,98136.13
2019-02-10T23:16:24.735Z,98174.64
2019-02-10T23:18:55.533Z,98180.90
2019-02-10T23:21:26.092Z,98196.05
2019-02-10T23:23:56.769Z,98202.66
2019-02-10T23:26:27.162Z,98218.75
2019-02-10T23:28:57.634Z,98215.05
2019-02-10T23:31:28.413Z,98226.72
2019-02-10T23:33:58.857Z,98236.55
2019-02-10T23:36:29.412Z,98237.66
2019-02-10T23:38:59.958Z,98246.91
2019-02-10T23:41:30.334Z,98240.97
2019-02-10T23:44:01.222Z,98245.86
2019-02-10T23:46:31.700Z,98247.49
2019-02-10T23:49:02.385Z,98230.03
2019-02-10T23:51:32.736Z,98235.92
2019-02-10T23:54:03.703Z,98247.13
2019-02-10T23:56:34.267Z,98265.91
2019-02-10T23:59:05.795Z,98246.70
